Time;durP1;ratioP1;P1;durP2;ratioP2;P2;SDS_P1;SDS_P2;PMS_P1;PMS_P2;Temp;Humidity;BMP_temperature;BMP_pressure;BME280_temperature;BME280_humidity;BME280_pressure;Samples;Min_cycle;Max_cycle;Signal;HPM_P1;HPM_P2
2023/03/02 00:01:40;;;;;;;22.10;11.80;;;8.50;53.50;;;;;;5054769;28;20021;-76
2023/03/02 00:04:10;;;;;;;28.10;12.60;;;8.50;53.60;;;;;;5054668;28;20447;-76
2023/03/02 00:06:36;;;;;;;30.40;12.07;;;8.50;53.60;;;;;;5054211;28;20387;-76
2023/03/02 00:09:04;;;;;;;22.50;11.25;;;8.50;53.60;;;;;;5054387;28;20036;-77
2023/03/02 00:11:32;;;;;;;22.55;11.40;;;8.50;53.60;;;;;;5054562;28;20028;-76
2023/03/02 00:13:58;;;;;;;23.58;11.18;;;8.50;53.50;;;;;;5054206;28;20021;-76
2023/03/02 00:16:24;;;;;;;21.92;11.70;;;8.50;53.50;;;;;;5054083;28;20032;-76
2023/03/02 00:18:50;;;;;;;27.08;12.00;;;8.50;53.60;;;;;;5053933;28;20486;-76
2023/03/02 00:21:16;;;;;;;24.23;11.10;;;8.50;53.60;;;;;;5054054;28;20102;-76
2023/03/02 00:23:42;;;;;;;23.90;11.82;;;8.50;53.60;;;;;;5053728;28;20021;-76
2023/03/02 00:26:07;;;;;;;26.80;13.30;;;8.40;53.60;;;;;;5053853;28;20446;-76
2023/03/02 00:28:33;;;;;;;24.38;13.32;;;8.50;53.70;;;;;;5036119;28;20111;-76
2023/03/02 00:31:02;;;;;;;28.33;12.60;;;8.40;53.70;;;;;;5036030;28;20494;-76
2023/03/02 00:33:28;;;;;;;23.80;12.65;;;8.40;53.60;;;;;;5053356;28;20025;-76
2023/03/02 00:35:54;;;;;;;26.30;13.05;;;8.40;53.60;;;;;;5044113;28;20532;-76
2023/03/02 00:38:19;;;;;;;24.75;12.00;;;8.40;53.60;;;;;;5034023;28;20033;-76
2023/03/02 00:40:47;;;;;;;28.92;13.10;;;8.40;53.60;;;;;;5033780;28;20509;-76
2023/03/02 00:43:14;;;;;;;33.10;13.15;;;8.30;53.50;;;;;;5033838;28;20018;-76
2023/03/02 00:45:40;;;;;;;24.77;13.52;;;8.30;53.60;;;;;;5033586;28;20021;-76
2023/03/02 00:48:06;;;;;;;25.83;13.48;;;8.30;53.60;;;;;;5033647;28;20029;-76
2023/03/02 00:50:39;;;;;;;23.20;13.75;;;8.30;53.50;;;;;;5033792;28;20045;-76
2023/03/02 00:53:08;;;;;;;24.45;13.35;;;8.30;53.50;;;;;;5037824;28;20513;-76
2023/03/02 00:55:34;;;;;;;25.20;14.05;;;8.30;53.50;;;;;;5052821;28;20033;-76
2023/03/02 00:57:59;;;;;;;33.85;14.57;;;8.30;53.50;;;;;;5053371;28;20025;-76
2023/03/02 01:00:28;;;;;;;25.08;13.55;;;8.30;53.50;;;;;;5053687;28;20021;-76
2023/03/02 01:02:55;;;;;;;31.92;14.38;;;8.30;53.50;;;;;;5053346;28;20437;-76
2023/03/02 01:05:21;;;;;;;26.38;14.43;;;8.30;53.50;;;;;;5033696;28;20045;-76
2023/03/02 01:07:47;;;;;;;29.35;14.90;;;8.20;53.50;;;;;;5053402;28;20435;-76
2023/03/02 01:10:13;;;;;;;30.30;13.80;;;8.20;53.60;;;;;;5053369;28;20052;-76
2023/03/02 01:12:40;;;;;;;25.98;13.77;;;8.20;53.60;;;;;;5053332;28;20497;-76
2023/03/02 01:15:07;;;;;;;30.35;13.95;;;8.20;53.40;;;;;;5053286;28;20494;-76
2023/03/02 01:17:33;;;;;;;27.45;14.25;;;8.20;53.50;;;;;;5053491;28;20063;-76
2023/03/02 01:19:59;;;;;;;29.23;14.82;;;8.20;53.50;;;;;;5053278;28;20021;-76
2023/03/02 01:22:25;;;;;;;26.15;14.38;;;8.20;53.60;;;;;;5053490;28;20013;-76
2023/03/02 01:24:52;;;;;;;21.30;12.45;;;8.20;53.60;;;;;;5052218;28;20119;-76
2023/03/02 01:27:18;;;;;;;27.33;14.13;;;8.20;53.60;;;;;;5053098;28;20082;-76
2023/03/02 01:29:44;;;;;;;28.65;14.25;;;8.20;53.60;;;;;;5054306;28;20104;-76
2023/03/02 01:32:10;;;;;;;28.58;14.25;;;8.20;53.60;;;;;;5057246;28;20062;-76
2023/03/02 01:34:36;;;;;;;35.72;15.10;;;8.20;53.60;;;;;;5039238;28;20470;-77
2023/03/02 01:37:02;;;;;;;31.77;14.93;;;8.20;53.80;;;;;;5057013;28;20035;-77
2023/03/02 01:39:28;;;;;;;29.33;15.38;;;8.10;53.60;;;;;;5039497;28;20497;-76
2023/03/02 01:41:54;;;;;;;33.47;15.15;;;8.10;53.60;;;;;;5057050;28;20096;-76
2023/03/02 01:44:39;;;;;;;25.15;14.38;;;8.10;53.60;;;;;;5056963;28;20024;-76
2023/03/02 01:47:12;;;;;;;31.80;15.13;;;8.10;53.60;;;;;;5039091;28;20024;-77
2023/03/02 01:49:43;;;;;;;30.65;14.95;;;8.10;53.80;;;;;;5057469;28;20025;-76
2023/03/02 01:52:11;;;;;;;29.92;14.32;;;8.10;54.20;;;;;;5058244;28;20033;-76
2023/03/02 01:54:39;;;;;;;28.98;15.32;;;8.10;53.60;;;;;;5057471;28;20024;-76
2023/03/02 01:57:05;;;;;;;27.40;14.93;;;8.10;53.50;;;;;;5057823;28;20113;-76
2023/03/02 01:59:34;;;;;;;32.22;16.25;;;8.10;53.50;;;;;;5057978;28;20104;-76
2023/03/02 02:02:03;;;;;;;30.13;14.07;;;8.10;53.60;;;;;;5056780;28;20025;-76
2023/03/02 02:04:31;;;;;;;32.85;15.52;;;8.10;53.60;;;;;;5056627;28;20023;-76
2023/03/02 02:07:03;;;;;;;34.45;15.80;;;8.10;53.60;;;;;;5056845;28;20082;-76
2023/03/02 02:09:43;;;;;;;31.63;15.20;;;8.10;53.50;;;;;;5056516;28;20036;-76
2023/03/02 02:12:18;;;;;;;33.65;14.65;;;8.00;53.50;;;;;;5056508;28;20359;-76
2023/03/02 02:14:45;;;;;;;29.48;14.43;;;8.10;53.50;;;;;;5056488;28;20035;-76
2023/03/02 02:17:12;;;;;;;32.17;14.40;;;8.10;53.50;;;;;;5056117;28;20039;-76
2023/03/02 02:19:59;;;;;;;30.58;14.95;;;8.10;53.60;;;;;;5056288;28;20107;-76
2023/03/02 02:22:39;;;;;;;42.13;16.05;;;8.10;53.60;;;;;;5056216;28;20017;-76
2023/03/02 02:25:17;;;;;;;37.90;16.05;;;8.10;53.60;;;;;;5055166;28;20513;-76
2023/03/02 02:27:43;;;;;;;40.00;15.27;;;8.10;53.60;;;;;;5056642;28;20029;-76
2023/03/02 02:30:12;;;;;;;29.15;14.38;;;8.10;53.70;;;;;;5056111;28;20044;-76
2023/03/02 02:32:38;;;;;;;28.70;14.82;;;8.10;53.80;;;;;;5056007;28;20421;-76
2023/03/02 02:35:18;;;;;;;32.97;14.38;;;8.10;53.90;;;;;;5055876;28;20458;-76
2023/03/02 02:37:50;;;;;;;26.60;14.10;;;8.10;53.90;;;;;;5038136;28;20057;-77
2023/03/02 02:40:37;;;;;;;28.67;13.77;;;8.10;53.80;;;;;;5055959;28;20493;-76
2023/03/02 02:43:04;;;;;;;34.67;15.50;;;8.10;53.80;;;;;;5037475;28;20031;-76
2023/03/02 02:45:30;;;;;;;38.13;14.10;;;8.20;53.80;;;;;;5055989;28;20432;-76
2023/03/02 02:47:56;;;;;;;28.20;13.68;;;8.20;53.80;;;;;;5055859;28;20070;-76
2023/03/02 02:50:30;;;;;;;27.33;14.25;;;8.20;53.80;;;;;;5037956;28;20024;-76
2023/03/02 02:53:01;;;;;;;28.90;13.38;;;8.20;53.90;;;;;;5055109;28;20025;-76
2023/03/02 02:55:29;;;;;;;29.67;14.00;;;8.20;53.90;;;;;;5050753;28;20116;-76
2023/03/02 02:57:58;;;;;;;24.75;12.30;;;8.20;53.90;;;;;;5036012;28;20025;-76
2023/03/02 03:00:25;;;;;;;28.90;12.60;;;8.20;53.90;;;;;;5035733;28;20075;-76
2023/03/02 03:02:57;;;;;;;33.85;13.68;;;8.20;54.50;;;;;;5042815;28;20021;-76
2023/03/02 03:05:23;;;;;;;35.75;12.38;;;8.20;54.00;;;;;;5055600;28;20028;-76
2023/03/02 03:07:49;;;;;;;31.83;12.77;;;8.30;54.10;;;;;;5055581;28;20382;-76
2023/03/02 03:10:22;;;;;;;27.67;12.70;;;8.30;54.10;;;;;;5055534;28;20075;-76
2023/03/02 03:12:50;;;;;;;23.67;11.57;;;8.20;54.10;;;;;;5055781;28;20032;-76
2023/03/02 03:15:16;;;;;;;23.77;12.23;;;8.30;54.10;;;;;;5055381;28;20425;-76
2023/03/02 03:17:56;;;;;;;23.35;11.35;;;8.30;54.20;;;;;;5055289;28;20028;-76
2023/03/02 03:20:23;;;;;;;23.20;11.27;;;8.30;54.30;;;;;;5055347;28;20013;-77
2023/03/02 03:22:52;;;;;;;23.48;11.57;;;8.30;54.20;;;;;;5055290;28;20573;-76
2023/03/02 03:25:19;;;;;;;26.60;11.07;;;8.30;54.30;;;;;;5054235;28;20045;-76
2023/03/02 03:27:45;;;;;;;18.77;10.57;;;8.20;54.40;;;;;;5055149;28;20493;-76
2023/03/02 03:30:12;;;;;;;27.98;11.88;;;8.20;54.50;;;;;;5055384;28;20090;-76
2023/03/02 03:32:39;;;;;;;24.17;11.25;;;8.20;54.60;;;;;;5055339;28;20064;-76
2023/03/02 03:35:07;;;;;;;18.98;9.48;;;8.20;54.70;;;;;;5055284;28;20025;-76
2023/03/02 03:37:34;;;;;;;26.20;10.48;;;8.20;54.70;;;;;;5054860;28;20466;-76
2023/03/02 03:40:00;;;;;;;24.73;10.60;;;8.20;54.70;;;;;;5054960;28;20028;-76
2023/03/02 03:42:26;;;;;;;18.05;10.05;;;8.20;54.70;;;;;;5054911;28;20021;-76
2023/03/02 03:44:51;;;;;;;22.88;10.55;;;8.30;54.80;;;;;;5054665;28;20029;-76
2023/03/02 03:47:17;;;;;;;21.75;11.18;;;8.30;54.90;;;;;;5055095;28;20025;-76
2023/03/02 03:49:43;;;;;;;20.05;9.82;;;8.30;54.90;;;;;;5036954;28;20429;-76
2023/03/02 03:52:09;;;;;;;19.35;10.55;;;8.40;54.80;;;;;;5054337;28;20031;-76
2023/03/02 03:54:35;;;;;;;27.95;12.65;;;8.40;54.60;;;;;;5053905;28;20095;-76
2023/03/02 03:57:01;;;;;;;24.70;12.35;;;8.40;54.40;;;;;;5054576;28;20128;-77
2023/03/02 03:59:27;;;;;;;34.97;17.02;;;8.40;54.20;;;;;;5054908;28;20025;-76
2023/03/02 04:01:59;;;;;;;35.85;17.05;;;8.40;54.20;;;;;;5054452;28;20029;-76
2023/03/02 04:04:33;;;;;;;36.42;17.73;;;8.40;54.20;;;;;;5054479;28;20021;-76
2023/03/02 04:06:59;;;;;;;;;;;8.40;54.10;;;;;;5037061;28;20470;-76
2023/03/02 04:09:25;;;;;;;29.95;15.55;;;8.40;53.90;;;;;;5054360;28;19951;-76
2023/03/02 04:11:54;;;;;;;30.77;16.02;;;8.40;53.90;;;;;;5054352;28;20052;-76
2023/03/02 04:14:21;;;;;;;42.38;17.08;;;8.30;53.90;;;;;;5054546;28;20067;-77
2023/03/02 04:16:47;;;;;;;42.15;16.92;;;8.30;54.00;;;;;;5054155;28;20029;-76
2023/03/02 04:19:16;;;;;;;39.03;18.05;;;8.20;54.00;;;;;;5054150;28;20493;-76
2023/03/02 04:21:46;;;;;;;37.75;20.20;;;8.20;54.00;;;;;;5054040;28;20078;-76
2023/03/02 04:24:13;;;;;;;49.05;22.02;;;8.10;54.00;;;;;;5053782;28;20347;-76
2023/03/02 04:26:41;;;;;;;42.55;20.42;;;8.10;54.10;;;;;;5036083;28;20044;-75
2023/03/02 04:29:07;;;;;;;39.90;21.48;;;8.00;54.10;;;;;;5054040;28;20078;-75
2023/03/02 04:31:33;;;;;;;52.60;25.13;;;8.00;54.00;;;;;;5053959;28;20021;-75
2023/03/02 04:34:03;;;;;;;48.88;23.55;;;8.00;54.10;;;;;;5053885;28;20047;-75
2023/03/02 04:36:30;;;;;;;47.15;21.33;;;7.90;54.00;;;;;;5053786;28;20048;-75
2023/03/02 04:38:56;;;;;;;49.58;22.67;;;7.90;53.90;;;;;;5054013;28;20079;-75
2023/03/02 04:41:22;;;;;;;44.95;22.48;;;7.90;53.90;;;;;;5053648;28;20419;-75
2023/03/02 04:43:48;;;;;;;50.70;23.17;;;7.90;53.90;;;;;;5053745;28;20377;-75
2023/03/02 04:46:18;;;;;;;53.95;25.50;;;7.80;53.90;;;;;;5053692;28;20029;-75
2023/03/02 04:48:44;;;;;;;63.70;26.75;;;7.80;54.00;;;;;;5053865;28;20455;-75
2023/03/02 04:51:24;;;;;;;58.88;25.45;;;7.70;54.20;;;;;;5053572;28;20031;-75
2023/03/02 04:53:56;;;;;;;51.85;23.13;;;7.70;54.40;;;;;;5052903;28;20449;-75
2023/03/02 04:56:22;;;;;;;52.50;26.13;;;7.60;54.40;;;;;;5040505;28;20112;-75
2023/03/02 04:58:48;;;;;;;54.65;27.00;;;7.60;54.60;;;;;;5033502;28;20028;-75
2023/03/02 05:01:16;;;;;;;60.30;27.58;;;7.60;54.80;;;;;;5050491;28;20383;-75
2023/03/02 05:03:42;;;;;;;56.08;26.80;;;7.50;54.90;;;;;;5052725;28;20386;-75
2023/03/02 05:06:08;;;;;;;44.80;24.48;;;7.50;55.00;;;;;;5052780;28;20028;-75
2023/03/02 05:08:34;;;;;;;61.67;28.67;;;7.50;54.90;;;;;;5053098;28;20029;-75
2023/03/02 05:11:00;;;;;;;45.35;24.75;;;7.50;55.10;;;;;;5053003;28;20414;-75
2023/03/02 05:13:26;;;;;;;43.67;23.98;;;7.50;55.10;;;;;;5053327;28;20051;-75
2023/03/02 05:15:53;;;;;;;45.47;22.77;;;7.50;55.00;;;;;;5053075;28;20481;-75
2023/03/02 05:18:19;;;;;;;47.13;24.15;;;7.50;54.90;;;;;;5053264;28;20527;-75
2023/03/02 05:20:45;;;;;;;47.75;25.30;;;7.50;55.10;;;;;;5052981;28;20395;-75
2023/03/02 05:23:22;;;;;;;51.22;23.77;;;7.50;55.20;;;;;;5051830;28;20047;-75
2023/03/02 05:25:50;;;;;;;44.72;23.40;;;7.50;55.20;;;;;;5020194;28;20046;-75
2023/03/02 05:28:16;;;;;;;43.28;21.88;;;7.40;55.20;;;;;;5013352;28;20022;-75
2023/03/02 05:30:42;;;;;;;49.85;23.13;;;7.40;55.10;;;;;;5013418;28;20032;-75
2023/03/02 05:33:08;;;;;;;54.90;26.85;;;7.40;55.20;;;;;;5013467;28;20026;-76
2023/03/02 05:35:35;;;;;;;50.67;25.58;;;7.40;55.40;;;;;;5013103;28;20033;-75
2023/03/02 05:38:00;;;;;;;64.32;26.88;;;7.40;55.50;;;;;;5011970;28;20030;-75
2023/03/02 05:40:26;;;;;;;67.55;30.48;;;7.30;55.60;;;;;;5013336;28;20068;-75
2023/03/02 05:42:52;;;;;;;64.28;28.30;;;7.30;55.60;;;;;;5013352;28;20379;-75
2023/03/02 05:45:27;;;;;;;56.60;26.40;;;7.30;55.80;;;;;;5013154;28;20553;-75
2023/03/02 05:47:53;;;;;;;45.25;23.58;;;7.30;55.80;;;;;;5013245;28;20052;-75
2023/03/02 05:50:19;;;;;;;47.72;23.45;;;7.30;55.80;;;;;;5013180;28;20026;-76
2023/03/02 05:52:46;;;;;;;52.30;24.20;;;7.30;55.60;;;;;;5012974;28;20026;-75
2023/03/02 05:55:12;;;;;;;60.85;29.02;;;7.30;55.50;;;;;;5027566;28;20466;-75
2023/03/02 05:57:38;;;;;;;57.78;26.25;;;7.30;55.70;;;;;;5013401;28;20060;-75
2023/03/02 06:00:06;;;;;;;60.75;27.48;;;7.40;55.70;;;;;;5031924;28;20017;-75
2023/03/02 06:02:31;;;;;;;58.05;26.45;;;7.30;55.50;;;;;;5033074;28;20026;-75
2023/03/02 06:04:57;;;;;;;57.92;28.40;;;7.40;55.50;;;;;;5032685;28;20017;-75
2023/03/02 06:07:23;;;;;;;64.97;30.50;;;7.30;55.50;;;;;;5031394;28;20033;-75
2023/03/02 06:09:49;;;;;;;62.47;28.00;;;7.30;55.50;;;;;;5032636;28;20392;-75
2023/03/02 06:12:16;;;;;;;62.17;27.95;;;7.40;55.60;;;;;;5032637;28;20018;-75
2023/03/02 06:14:43;;;;;;;65.97;29.35;;;7.40;55.60;;;;;;5032450;28;20029;-75
2023/03/02 06:17:09;;;;;;;67.78;29.10;;;7.40;55.50;;;;;;5035673;28;20021;-75
2023/03/02 06:19:35;;;;;;;76.32;31.40;;;7.40;55.60;;;;;;5036822;28;20112;-75
2023/03/02 06:22:01;;;;;;;66.53;29.92;;;7.40;55.80;;;;;;5036479;28;20053;-75
2023/03/02 06:24:27;;;;;;;75.05;31.33;;;7.40;55.80;;;;;;5037146;28;20049;-75
2023/03/02 06:26:53;;;;;;;77.38;32.53;;;7.50;55.90;;;;;;5056358;28;20028;-75
2023/03/02 06:29:20;;;;;;;69.30;30.23;;;7.50;55.90;;;;;;5055835;28;20025;-74
2023/03/02 06:31:46;;;;;;;64.53;30.02;;;7.50;55.90;;;;;;5056069;28;20446;-73
2023/03/02 06:34:12;;;;;;;64.28;28.45;;;7.50;55.90;;;;;;5055797;28;20151;-75
2023/03/02 06:36:38;;;;;;;58.40;27.92;;;7.60;56.00;;;;;;5055814;28;20378;-75
2023/03/02 06:39:14;;;;;;;59.10;26.20;;;7.60;56.00;;;;;;5055712;28;20424;-75
2023/03/02 06:41:44;;;;;;;53.08;25.80;;;7.60;55.90;;;;;;5055528;28;20036;-75
2023/03/02 06:44:10;;;;;;;65.53;28.55;;;7.70;56.00;;;;;;5055390;28;20025;-75
2023/03/02 06:46:38;;;;;;;75.30;29.70;;;7.70;55.90;;;;;;5055461;28;20382;-76
2023/03/02 06:49:04;;;;;;;61.97;29.17;;;7.80;55.80;;;;;;5055461;28;20120;-76
2023/03/02 06:51:31;;;;;;;67.53;30.63;;;7.80;55.80;;;;;;5055692;28;20087;-76
2023/03/02 06:53:57;;;;;;;59.50;29.52;;;7.90;55.80;;;;;;5054580;28;20092;-76
2023/03/02 06:56:23;;;;;;;56.45;28.45;;;7.90;55.70;;;;;;5039793;28;20131;-76
2023/03/02 06:58:49;;;;;;;72.47;33.55;;;8.00;55.60;;;;;;5055457;28;20091;-76
2023/03/02 07:01:15;;;;;;;66.68;32.92;;;8.00;55.50;;;;;;5055818;28;20462;-77
2023/03/02 07:03:41;;;;;;;66.53;32.58;;;8.10;55.50;;;;;;5055463;28;20028;-77
2023/03/02 07:06:07;;;;;;;76.22;33.63;;;8.10;55.30;;;;;;5055279;28;20526;-77
2023/03/02 07:08:33;;;;;;;76.30;33.83;;;8.10;55.20;;;;;;5055339;28;20035;-77
2023/03/02 07:11:03;;;;;;;70.32;30.95;;;8.10;55.10;;;;;;5055154;28;20028;-76
2023/03/02 07:13:29;;;;;;;59.05;29.88;;;8.20;55.10;;;;;;5055183;28;20021;-77
2023/03/02 07:15:55;;;;;;;70.05;27.92;;;8.20;55.00;;;;;;5055174;28;20029;-77
2023/03/02 07:18:21;;;;;;;60.28;29.90;;;8.30;54.90;;;;;;5054864;28;20098;-77
2023/03/02 07:20:47;;;;;;;67.25;29.88;;;8.40;54.80;;;;;;5054654;28;20024;-76
2023/03/02 07:23:13;;;;;;;69.10;31.92;;;8.40;54.80;;;;;;5055290;28;20021;-77
2023/03/02 07:25:38;;;;;;;59.42;30.02;;;8.50;54.70;;;;;;5042480;28;20046;-76
2023/03/02 07:28:04;;;;;;;72.25;31.42;;;8.50;54.60;;;;;;5033777;28;20359;-76
2023/03/02 07:30:30;;;;;;;66.78;29.92;;;8.50;55.10;;;;;;5034841;28;20420;-76
2023/03/02 07:32:56;;;;;;;64.55;31.00;;;8.50;54.30;;;;;;5034807;28;20032;-76
2023/03/02 07:35:22;;;;;;;57.67;27.98;;;8.60;54.40;;;;;;5034754;28;20065;-76
2023/03/02 07:37:48;;;;;;;79.05;33.25;;;8.60;54.30;;;;;;5034658;28;20061;-76
2023/03/02 07:40:14;;;;;;;67.18;31.50;;;8.60;54.20;;;;;;5034787;28;20044;-76
2023/03/02 07:42:40;;;;;;;56.28;29.48;;;8.70;54.10;;;;;;5034613;28;20017;-76
2023/03/02 07:45:06;;;;;;;63.05;29.80;;;8.70;54.00;;;;;;5034910;28;20029;-77
2023/03/02 07:47:32;;;;;;;58.47;28.58;;;8.80;54.00;;;;;;5035011;28;20029;-77
2023/03/02 07:49:58;;;;;;;65.20;30.00;;;8.90;53.90;;;;;;5030909;28;20022;-77
2023/03/02 07:52:23;;;;;;;57.83;29.38;;;8.90;53.80;;;;;;5024032;28;20108;-76
2023/03/02 07:54:50;;;;;;;53.00;28.38;;;9.00;53.90;;;;;;5026150;28;20033;-77
2023/03/02 07:57:16;;;;;;;50.92;27.23;;;9.00;53.90;;;;;;5033759;28;20036;-77
2023/03/02 07:59:42;;;;;;;53.55;27.08;;;9.10;54.10;;;;;;5032007;28;20378;-77
2023/03/02 08:02:12;;;;;;;51.55;27.60;;;9.20;54.00;;;;;;5034332;28;20067;-76
2023/03/02 08:04:38;;;;;;;65.45;30.05;;;9.20;53.80;;;;;;5034362;28;20021;-76
2023/03/02 08:07:04;;;;;;;63.25;29.85;;;9.20;53.40;;;;;;5029088;28;20498;-76
2023/03/02 08:09:30;;;;;;;47.75;27.35;;;9.30;53.30;;;;;;5033358;28;20037;-77
2023/03/02 08:11:55;;;;;;;56.00;26.00;;;9.30;53.40;;;;;;5034316;28;20029;-76
2023/03/02 08:14:21;;;;;;;62.97;27.90;;;9.40;53.60;;;;;;5032189;28;20061;-76
2023/03/02 08:16:47;;;;;;;46.35;24.90;;;9.40;53.30;;;;;;5027262;28;20056;-76
2023/03/02 08:19:13;;;;;;;51.70;26.00;;;9.50;53.30;;;;;;5033742;28;20101;-77
2023/03/02 08:21:39;;;;;;;62.67;28.92;;;9.60;53.20;;;;;;5034021;28;20080;-77
2023/03/02 08:24:05;;;;;;;70.82;29.60;;;9.60;52.80;;;;;;5033466;28;20026;-76
2023/03/02 08:26:31;;;;;;;64.38;29.98;;;9.70;52.60;;;;;;5028234;28;20073;-77
2023/03/02 08:28:58;;;;;;;70.65;29.08;;;9.70;52.40;;;;;;5037297;28;20101;-77
2023/03/02 08:31:24;;;;;;;57.30;28.73;;;9.70;52.40;;;;;;5028847;28;20057;-77
2023/03/02 08:33:50;;;;;;;60.15;29.80;;;9.80;52.30;;;;;;5027366;28;20076;-76
2023/03/02 08:36:18;;;;;;;52.63;27.60;;;9.80;52.00;;;;;;5020190;28;20034;-77
2023/03/02 08:38:45;;;;;;;52.08;28.25;;;9.90;52.10;;;;;;5014509;28;20117;-77
2023/03/02 08:41:14;;;;;;;54.03;28.58;;;9.90;52.20;;;;;;5012774;28;20092;-76
2023/03/02 08:43:40;;;;;;;51.83;26.67;;;10.00;51.90;;;;;;5015457;28;20360;-76
2023/03/02 08:46:07;;;;;;;56.67;27.00;;;10.10;52.00;;;;;;5013682;28;20022;-77
2023/03/02 08:48:34;;;;;;;64.05;29.30;;;10.10;51.90;;;;;;5019339;28;20460;-77
2023/03/02 08:51:07;;;;;;;61.92;30.85;;;10.20;51.80;;;;;;5019523;28;20418;-77
2023/03/02 08:53:36;;;;;;;58.10;29.77;;;10.20;51.60;;;;;;5030450;28;20022;-77
2023/03/02 08:56:02;;;;;;;56.15;28.73;;;10.30;51.80;;;;;;5026794;28;20033;-77
2023/03/02 08:58:28;;;;;;;60.60;29.15;;;10.40;51.60;;;;;;5032832;28;20030;-77
2023/03/02 09:00:54;;;;;;;54.70;29.50;;;10.40;51.70;;;;;;5015738;28;20056;-77
2023/03/02 09:03:20;;;;;;;51.10;28.80;;;10.50;51.40;;;;;;5032407;28;20021;-77
2023/03/02 09:05:46;;;;;;;61.70;30.92;;;10.60;51.30;;;;;;5033344;28;20029;-77
2023/03/02 09:08:12;;;;;;;70.38;33.85;;;10.60;51.30;;;;;;5025927;28;20036;-77
2023/03/02 09:10:38;;;;;;;61.05;29.98;;;10.60;51.00;;;;;;5032847;28;20029;-76
2023/03/02 09:13:04;;;;;;;54.53;29.35;;;10.70;51.10;;;;;;5032941;28;20033;-77
2023/03/02 09:15:30;;;;;;;61.20;30.50;;;10.80;51.10;;;;;;5031725;28;20427;-77
2023/03/02 09:17:56;;;;;;;62.65;30.20;;;10.80;51.10;;;;;;5032500;28;20108;-77
2023/03/02 09:20:22;;;;;;;47.97;26.40;;;10.90;50.90;;;;;;5032928;28;20383;-76
2023/03/02 09:22:49;;;;;;;52.15;27.48;;;11.00;51.10;;;;;;5031489;28;20032;-76
2023/03/02 09:25:19;;;;;;;54.22;25.80;;;11.10;51.20;;;;;;5040091;28;20037;-77
2023/03/02 09:27:45;;;;;;;67.03;30.88;;;11.20;51.20;;;;;;5052627;28;20048;-76
2023/03/02 09:30:12;;;;;;;48.40;24.33;;;11.30;50.60;;;;;;5052951;28;20402;-77
2023/03/02 09:32:38;;;;;;;48.20;26.13;;;11.30;50.50;;;;;;5052587;28;20102;-77
2023/03/02 09:35:04;;;;;;;55.65;26.45;;;11.40;50.60;;;;;;5052887;28;20029;-77
2023/03/02 09:37:30;;;;;;;49.30;24.30;;;11.50;50.30;;;;;;5052863;28;20028;-76
2023/03/02 09:39:56;;;;;;;54.75;25.23;;;11.60;50.50;;;;;;5049648;28;20383;-77
2023/03/02 09:42:50;;;;;;;55.35;27.83;;;11.70;50.00;;;;;;5042799;28;20086;-77
2023/03/02 09:45:16;;;;;;;37.75;21.48;;;11.70;49.80;;;;;;5052232;28;20017;-77
2023/03/02 09:48:07;;;;;;;46.10;21.42;;;11.80;50.10;;;;;;5034973;28;20033;-78
2023/03/02 09:50:40;;;;;;;37.10;18.70;;;11.90;49.90;;;;;;5053510;28;20029;-77
2023/03/02 09:53:42;;;;;;;36.33;19.45;;;12.00;49.50;;;;;;5039674;28;20390;-77
2023/03/02 09:56:15;;;;;;;31.08;16.58;;;12.10;49.60;;;;;;5040423;28;20033;-77
2023/03/02 09:58:44;;;;;;;34.47;18.52;;;12.20;49.70;;;;;;5058409;28;20469;-76
2023/03/02 10:01:17;;;;;;;38.50;17.85;;;12.30;49.30;;;;;;5057336;28;20083;-76
2023/03/02 10:03:59;;;;;;;31.45;16.63;;;12.30;49.00;;;;;;5052948;28;20071;-77
2023/03/02 10:06:25;;;;;;;31.85;18.75;;;12.40;49.20;;;;;;5056924;28;20071;-77
2023/03/02 10:08:51;;;;;;;35.30;18.65;;;12.50;48.70;;;;;;5055887;28;20083;-77
2023/03/02 10:11:28;;;;;;;32.42;17.48;;;12.60;48.60;;;;;;5037953;28;20025;-77
2023/03/02 10:14:29;;;;;;;34.42;18.15;;;12.60;49.20;;;;;;5056352;28;20029;-77
2023/03/02 10:17:28;;;;;;;35.35;16.98;;;12.70;48.50;;;;;;4955479;29;20603;-77
2023/03/02 10:20:04;;;;;;;36.80;18.23;;;12.80;48.10;;;;;;4954609;29;20163;-77
2023/03/02 10:22:47;;;;;;;29.38;16.15;;;12.80;48.20;;;;;;4955857;29;20024;-77
2023/03/02 10:25:42;;;;;;;37.10;16.08;;;12.90;47.70;;;;;;4955535;29;20039;-77
2023/03/02 10:28:20;;;;;;;32.45;14.35;;;13.00;47.80;;;;;;4940023;29;20126;-75
2023/03/02 10:30:59;;;;;;;41.50;16.80;;;13.00;47.60;;;;;;4956260;29;20097;-76
2023/03/02 10:33:26;;;;;;;30.98;15.27;;;13.00;47.30;;;;;;4956502;29;20043;-76
2023/03/02 10:35:52;;;;;;;25.25;12.60;;;13.10;47.60;;;;;;4955253;29;20114;-76
2023/03/02 10:38:23;;;;;;;25.08;12.07;;;13.20;47.40;;;;;;4955987;28;20038;-76
2023/03/02 10:40:58;;;;;;;25.48;10.68;;;13.20;47.50;;;;;;4955814;28;20023;-76
2023/03/02 10:43:47;;;;;;;25.42;10.90;;;13.30;47.00;;;;;;4936704;29;20537;-76
2023/03/02 10:46:14;;;;;;;22.38;11.73;;;13.40;47.00;;;;;;4938178;29;20144;-76
2023/03/02 10:49:22;;;;;;;18.35;10.90;;;13.40;46.90;;;;;;4936940;29;20043;-76
2023/03/02 10:52:13;;;;;;;24.42;9.98;;;13.50;46.90;;;;;;4972944;28;20139;-76
2023/03/02 10:54:40;;;;;;;22.45;9.35;;;13.60;46.50;;;;;;5055559;28;20024;-76
2023/03/02 10:57:23;;;;;;;19.92;10.00;;;13.60;46.40;;;;;;5055260;28;20059;-76
2023/03/02 10:59:51;;;;;;;22.17;11.40;;;13.70;46.40;;;;;;5055660;28;20025;-76
2023/03/02 11:02:23;;;;;;;29.00;10.82;;;13.80;46.30;;;;;;5054542;28;20021;-76
2023/03/02 11:04:54;;;;;;;17.05;8.45;;;13.80;45.90;;;;;;5055769;28;20355;-76
2023/03/02 11:07:22;;;;;;;23.98;8.45;;;13.90;45.60;;;;;;5055389;28;20025;-76
2023/03/02 11:10:00;;;;;;;19.67;8.43;;;13.90;45.30;;;;;;5055438;28;20028;-76
2023/03/02 11:12:27;;;;;;;28.80;9.70;;;14.00;45.40;;;;;;5055583;28;20025;-76
2023/03/02 11:15:30;;;;;;;19.60;8.82;;;14.00;45.10;;;;;;5055141;28;20029;-76
2023/03/02 11:18:17;;;;;;;16.50;9.80;;;14.10;45.10;;;;;;5033608;28;20116;-77
2023/03/02 11:20:47;;;;;;;22.83;10.57;;;14.20;45.50;;;;;;5036809;28;20498;-77
2023/03/02 11:23:36;;;;;;;17.83;10.32;;;14.30;45.10;;;;;;5054748;28;20032;-77
2023/03/02 11:26:24;;;;;;;24.85;10.57;;;14.30;45.30;;;;;;5054813;28;20068;-77
2023/03/02 11:28:59;;;;;;;25.48;11.18;;;14.40;45.10;;;;;;5055217;28;20331;-76
2023/03/02 11:31:44;;;;;;;27.30;8.70;;;14.40;44.70;;;;;;5055096;28;20537;-76
2023/03/02 11:34:26;;;;;;;15.48;7.13;;;14.50;44.70;;;;;;5054690;28;20115;-76
2023/03/02 11:37:12;;;;;;;20.77;6.95;;;14.50;44.50;;;;;;5054789;28;20039;-76
2023/03/02 11:39:48;;;;;;;14.23;7.18;;;14.60;44.20;;;;;;5054901;28;20021;-76
2023/03/02 11:42:26;;;;;;;15.90;6.72;;;14.60;44.20;;;;;;5055172;28;20178;-76
2023/03/02 11:44:51;;;;;;;13.65;6.40;;;14.70;44.10;;;;;;5054712;28;20029;-76
2023/03/02 11:47:20;;;;;;;20.50;7.68;;;14.80;44.40;;;;;;5054121;28;20040;-76
2023/03/02 11:49:58;;;;;;;12.55;5.93;;;14.80;43.80;;;;;;5054256;28;20078;-76
2023/03/02 11:52:29;;;;;;;15.15;5.97;;;14.80;43.80;;;;;;5049904;28;20025;-77
2023/03/02 11:55:16;;;;;;;18.13;6.82;;;14.90;43.80;;;;;;5054439;28;20021;-77
2023/03/02 11:57:49;;;;;;;14.52;5.97;;;14.90;43.00;;;;;;5036329;28;20029;-76
2023/03/02 12:00:33;;;;;;;18.75;6.05;;;15.00;43.00;;;;;;5051870;28;20029;-77
2023/03/02 12:03:30;;;;;;;16.13;6.70;;;15.00;42.70;;;;;;5034776;28;20104;-77
2023/03/02 12:06:04;;;;;;;14.93;5.78;;;15.10;42.80;;;;;;4967331;28;20034;-77
2023/03/02 12:08:41;;;;;;;18.95;6.72;;;15.10;42.50;;;;;;4973417;28;20067;-77
2023/03/02 12:11:24;;;;;;;14.63;5.85;;;15.10;42.30;;;;;;4973102;28;20401;-77
2023/03/02 12:14:02;;;;;;;16.83;6.35;;;15.10;41.90;;;;;;4973134;28;20038;-77
2023/03/02 12:16:42;;;;;;;10.57;5.72;;;15.20;42.10;;;;;;4972091;28;20034;-77
2023/03/02 12:19:24;;;;;;;12.02;6.05;;;15.30;42.40;;;;;;4972578;28;20034;-77
2023/03/02 12:22:07;;;;;;;20.90;6.10;;;15.30;41.80;;;;;;4964539;28;20027;-76
2023/03/02 12:24:36;;;;;;;12.18;5.63;;;15.30;41.30;;;;;;4972810;28;20078;-77
2023/03/02 12:27:19;;;;;;;10.00;5.60;;;15.40;41.30;;;;;;4972183;28;20085;-77
2023/03/02 12:29:48;;;;;;;12.97;6.73;;;15.40;41.60;;;;;;4973027;28;20117;-77
2023/03/02 12:32:25;;;;;;;16.13;5.60;;;15.40;41.30;;;;;;4956154;28;20464;-76
2023/03/02 12:34:58;;;;;;;12.02;6.43;;;15.50;40.90;;;;;;4973074;28;20038;-77
2023/03/02 12:37:30;;;;;;;15.15;6.55;;;15.50;40.70;;;;;;4972420;28;20528;-77
2023/03/02 12:40:01;;;;;;;16.25;6.00;;;15.50;40.00;;;;;;4971464;28;20109;-77
2023/03/02 12:42:33;;;;;;;11.48;5.60;;;15.50;40.20;;;;;;4989923;28;20084;-77
2023/03/02 12:45:19;;;;;;;17.70;6.63;;;15.60;40.30;;;;;;5013990;28;20022;-77
2023/03/02 12:47:49;;;;;;;16.30;6.60;;;15.60;40.50;;;;;;5012746;28;20026;-77
2023/03/02 12:50:24;;;;;;;21.73;7.22;;;15.60;40.50;;;;;;5012663;28;20501;-77